sensor_id;sensor_type;location;lat;lon;timestamp;P1;durP1;ratioP1;P2;durP2;ratioP2
36315;SDS011;22343;50.820;2.666;2023-05-10T00:00:51;15.13;;;9.03;;
36315;SDS011;22343;50.820;2.666;2023-05-10T00:03:37;14.80;;;9.30;;
36315;SDS011;22343;50.820;2.666;2023-05-10T00:06:22;16.50;;;9.60;;
36315;SDS011;22343;50.820;2.666;2023-05-10T00:09:09;12.87;;;9.00;;
36315;SDS011;22343;50.820;2.666;2023-05-10T00:11:53;13.27;;;8.87;;
36315;SDS011;22343;50.820;2.666;2023-05-10T00:14:39;14.20;;;8.93;;
36315;SDS011;22343;50.820;2.666;2023-05-10T00:17:24;14.07;;;9.07;;
36315;SDS011;22343;50.820;2.666;2023-05-10T00:20:09;15.23;;;9.30;;
36315;SDS011;22343;50.820;2.666;2023-05-10T00:22:55;15.30;;;9.70;;
36315;SDS011;22343;50.820;2.666;2023-05-10T00:25:41;14.40;;;9.50;;
36315;SDS011;22343;50.820;2.666;2023-05-10T00:28:27;16.67;;;10.50;;
36315;SDS011;22343;50.820;2.666;2023-05-10T00:31:12;17.33;;;11.17;;
36315;SDS011;22343;50.820;2.666;2023-05-10T00:33:58;19.30;;;12.87;;
36315;SDS011;22343;50.820;2.666;2023-05-10T00:36:44;19.50;;;13.03;;
36315;SDS011;22343;50.820;2.666;2023-05-10T00:39:29;20.33;;;13.00;;
36315;SDS011;22343;50.820;2.666;2023-05-10T00:42:15;17.87;;;12.97;;
36315;SDS011;22343;50.820;2.666;2023-05-10T00:45:00;20.73;;;13.87;;
36315;SDS011;22343;50.820;2.666;2023-05-10T00:47:46;21.13;;;14.67;;
36315;SDS011;22343;50.820;2.666;2023-05-10T00:50:31;21.63;;;14.30;;
36315;SDS011;22343;50.820;2.666;2023-05-10T00:53:16;20.43;;;14.30;;
36315;SDS011;22343;50.820;2.666;2023-05-10T00:56:00;20.57;;;13.77;;
36315;SDS011;22343;50.820;2.666;2023-05-10T00:58:46;22.27;;;14.40;;
36315;SDS011;22343;50.820;2.666;2023-05-10T01:01:31;19.60;;;14.27;;
36315;SDS011;22343;50.820;2.666;2023-05-10T01:04:17;22.03;;;14.20;;
36315;SDS011;22343;50.820;2.666;2023-05-10T01:07:05;21.93;;;13.67;;
36315;SDS011;22343;50.820;2.666;2023-05-10T01:09:52;24.37;;;14.90;;
36315;SDS011;22343;50.820;2.666;2023-05-10T01:12:39;18.87;;;13.87;;
36315;SDS011;22343;50.820;2.666;2023-05-10T01:15:26;18.43;;;13.37;;
36315;SDS011;22343;50.820;2.666;2023-05-10T01:18:11;18.90;;;12.20;;
36315;SDS011;22343;50.820;2.666;2023-05-10T01:21:09;17.17;;;12.00;;
36315;SDS011;22343;50.820;2.666;2023-05-10T01:27:39;24.47;;;15.43;;
36315;SDS011;22343;50.820;2.666;2023-05-10T01:37:20;32.00;;;18.87;;
36315;SDS011;22343;50.820;2.666;2023-05-10T01:43:37;28.83;;;17.70;;
36315;SDS011;22343;50.820;2.666;2023-05-10T01:46:35;28.67;;;17.27;;
36315;SDS011;22343;50.820;2.666;2023-05-10T01:49:24;26.63;;;16.03;;
36315;SDS011;22343;50.820;2.666;2023-05-10T01:52:13;25.87;;;13.50;;
36315;SDS011;22343;50.820;2.666;2023-05-10T01:55:00;23.57;;;12.87;;
36315;SDS011;22343;50.820;2.666;2023-05-10T01:57:48;25.60;;;13.13;;
36315;SDS011;22343;50.820;2.666;2023-05-10T02:00:35;22.37;;;12.93;;
36315;SDS011;22343;50.820;2.666;2023-05-10T02:03:22;24.57;;;13.37;;
36315;SDS011;22343;50.820;2.666;2023-05-10T02:06:09;28.13;;;12.97;;
36315;SDS011;22343;50.820;2.666;2023-05-10T02:08:56;26.77;;;13.93;;
36315;SDS011;22343;50.820;2.666;2023-05-10T02:11:42;25.57;;;13.63;;
36315;SDS011;22343;50.820;2.666;2023-05-10T02:14:29;28.90;;;13.57;;
36315;SDS011;22343;50.820;2.666;2023-05-10T02:17:15;24.77;;;13.10;;
36315;SDS011;22343;50.820;2.666;2023-05-10T02:20:00;25.17;;;13.33;;
36315;SDS011;22343;50.820;2.666;2023-05-10T02:22:48;27.37;;;13.30;;
36315;SDS011;22343;50.820;2.666;2023-05-10T02:25:34;25.60;;;13.17;;
36315;SDS011;22343;50.820;2.666;2023-05-10T02:28:19;29.57;;;14.63;;
36315;SDS011;22343;50.820;2.666;2023-05-10T02:31:04;22.73;;;12.73;;
36315;SDS011;22343;50.820;2.666;2023-05-10T02:33:49;21.40;;;12.13;;
36315;SDS011;22343;50.820;2.666;2023-05-10T02:36:35;21.60;;;12.00;;
36315;SDS011;22343;50.820;2.666;2023-05-10T02:39:22;19.53;;;11.03;;
36315;SDS011;22343;50.820;2.666;2023-05-10T02:42:08;21.33;;;12.03;;
36315;SDS011;22343;50.820;2.666;2023-05-10T02:44:54;19.27;;;11.73;;
36315;SDS011;22343;50.820;2.666;2023-05-10T02:47:42;19.40;;;10.87;;
36315;SDS011;22343;50.820;2.666;2023-05-10T02:50:28;21.17;;;11.57;;
36315;SDS011;22343;50.820;2.666;2023-05-10T02:53:34;16.47;;;10.90;;
36315;SDS011;22343;50.820;2.666;2023-05-10T02:56:25;19.67;;;12.00;;
36315;SDS011;22343;50.820;2.666;2023-05-10T02:59:14;18.30;;;11.47;;
36315;SDS011;22343;50.820;2.666;2023-05-10T03:02:00;17.53;;;11.63;;
36315;SDS011;22343;50.820;2.666;2023-05-10T03:04:46;20.80;;;11.93;;
36315;SDS011;22343;50.820;2.666;2023-05-10T03:07:32;20.17;;;12.10;;
36315;SDS011;22343;50.820;2.666;2023-05-10T03:10:18;17.27;;;11.40;;
36315;SDS011;22343;50.820;2.666;2023-05-10T03:13:16;16.90;;;11.70;;
36315;SDS011;22343;50.820;2.666;2023-05-10T03:16:23;20.57;;;12.67;;
36315;SDS011;22343;50.820;2.666;2023-05-10T03:19:47;21.23;;;12.53;;
36315;SDS011;22343;50.820;2.666;2023-05-10T03:22:32;21.10;;;13.17;;
36315;SDS011;22343;50.820;2.666;2023-05-10T03:25:21;21.57;;;13.17;;
36315;SDS011;22343;50.820;2.666;2023-05-10T03:28:07;22.10;;;12.80;;
36315;SDS011;22343;50.820;2.666;2023-05-10T03:30:53;25.70;;;13.60;;
36315;SDS011;22343;50.820;2.666;2023-05-10T03:33:47;23.87;;;14.63;;
36315;SDS011;22343;50.820;2.666;2023-05-10T03:36:33;24.37;;;14.83;;
36315;SDS011;22343;50.820;2.666;2023-05-10T03:39:19;26.00;;;15.27;;
36315;SDS011;22343;50.820;2.666;2023-05-10T03:42:06;32.33;;;16.27;;
36315;SDS011;22343;50.820;2.666;2023-05-10T03:44:51;33.43;;;15.93;;
36315;SDS011;22343;50.820;2.666;2023-05-10T03:47:37;25.23;;;15.00;;
36315;SDS011;22343;50.820;2.666;2023-05-10T03:50:22;28.17;;;15.70;;
36315;SDS011;22343;50.820;2.666;2023-05-10T03:53:08;30.60;;;16.57;;
36315;SDS011;22343;50.820;2.666;2023-05-10T03:55:54;26.27;;;15.50;;
36315;SDS011;22343;50.820;2.666;2023-05-10T03:58:38;28.07;;;15.73;;
36315;SDS011;22343;50.820;2.666;2023-05-10T04:01:24;26.63;;;15.57;;
36315;SDS011;22343;50.820;2.666;2023-05-10T04:04:10;27.40;;;16.57;;
36315;SDS011;22343;50.820;2.666;2023-05-10T04:06:55;27.80;;;15.77;;
36315;SDS011;22343;50.820;2.666;2023-05-10T04:09:41;24.33;;;14.90;;
36315;SDS011;22343;50.820;2.666;2023-05-10T04:12:27;27.60;;;15.10;;
36315;SDS011;22343;50.820;2.666;2023-05-10T04:15:13;27.40;;;15.37;;
36315;SDS011;22343;50.820;2.666;2023-05-10T04:17:59;23.80;;;14.53;;
36315;SDS011;22343;50.820;2.666;2023-05-10T04:20:44;31.67;;;15.33;;
36315;SDS011;22343;50.820;2.666;2023-05-10T04:23:30;30.27;;;15.60;;
36315;SDS011;22343;50.820;2.666;2023-05-10T04:26:16;26.20;;;15.67;;
36315;SDS011;22343;50.820;2.666;2023-05-10T04:29:01;25.37;;;15.47;;
36315;SDS011;22343;50.820;2.666;2023-05-10T04:31:47;30.07;;;15.27;;
36315;SDS011;22343;50.820;2.666;2023-05-10T04:34:32;32.07;;;15.13;;
36315;SDS011;22343;50.820;2.666;2023-05-10T04:37:23;27.47;;;15.00;;
36315;SDS011;22343;50.820;2.666;2023-05-10T04:40:09;25.37;;;14.83;;
36315;SDS011;22343;50.820;2.666;2023-05-10T04:42:55;24.57;;;16.07;;
36315;SDS011;22343;50.820;2.666;2023-05-10T04:45:39;28.23;;;15.30;;
36315;SDS011;22343;50.820;2.666;2023-05-10T04:48:25;28.40;;;15.10;;
36315;SDS011;22343;50.820;2.666;2023-05-10T04:51:11;24.37;;;14.37;;
36315;SDS011;22343;50.820;2.666;2023-05-10T04:53:57;25.40;;;15.23;;
36315;SDS011;22343;50.820;2.666;2023-05-10T04:56:44;28.03;;;15.10;;
36315;SDS011;22343;50.820;2.666;2023-05-10T04:59:29;28.37;;;15.30;;
36315;SDS011;22343;50.820;2.666;2023-05-10T05:02:14;27.80;;;15.60;;
36315;SDS011;22343;50.820;2.666;2023-05-10T05:04:58;29.17;;;16.17;;
36315;SDS011;22343;50.820;2.666;2023-05-10T05:07:44;27.47;;;15.40;;
36315;SDS011;22343;50.820;2.666;2023-05-10T05:10:30;31.03;;;14.70;;
36315;SDS011;22343;50.820;2.666;2023-05-10T05:13:14;23.67;;;14.47;;
36315;SDS011;22343;50.820;2.666;2023-05-10T05:16:00;24.60;;;14.07;;
36315;SDS011;22343;50.820;2.666;2023-05-10T05:18:46;21.23;;;13.27;;
36315;SDS011;22343;50.820;2.666;2023-05-10T05:21:31;23.83;;;14.30;;
36315;SDS011;22343;50.820;2.666;2023-05-10T05:24:17;23.27;;;13.53;;
36315;SDS011;22343;50.820;2.666;2023-05-10T05:27:03;24.70;;;13.10;;
36315;SDS011;22343;50.820;2.666;2023-05-10T05:29:50;22.13;;;13.87;;
36315;SDS011;22343;50.820;2.666;2023-05-10T05:32:36;24.10;;;13.63;;
36315;SDS011;22343;50.820;2.666;2023-05-10T05:35:22;21.40;;;13.27;;
36315;SDS011;22343;50.820;2.666;2023-05-10T05:38:07;25.07;;;14.63;;
36315;SDS011;22343;50.820;2.666;2023-05-10T05:40:52;21.03;;;13.00;;
36315;SDS011;22343;50.820;2.666;2023-05-10T05:43:37;23.80;;;13.67;;
36315;SDS011;22343;50.820;2.666;2023-05-10T05:46:24;23.87;;;13.80;;
36315;SDS011;22343;50.820;2.666;2023-05-10T05:49:09;22.30;;;13.47;;
36315;SDS011;22343;50.820;2.666;2023-05-10T05:51:58;21.70;;;13.00;;
36315;SDS011;22343;50.820;2.666;2023-05-10T05:54:48;21.57;;;12.70;;
36315;SDS011;22343;50.820;2.666;2023-05-10T05:57:33;19.53;;;11.93;;
36315;SDS011;22343;50.820;2.666;2023-05-10T06:00:19;23.13;;;12.47;;
36315;SDS011;22343;50.820;2.666;2023-05-10T06:03:04;20.70;;;12.07;;
36315;SDS011;22343;50.820;2.666;2023-05-10T06:05:50;19.13;;;12.63;;
36315;SDS011;22343;50.820;2.666;2023-05-10T06:08:35;16.63;;;11.40;;
36315;SDS011;22343;50.820;2.666;2023-05-10T06:11:21;18.10;;;11.03;;
36315;SDS011;22343;50.820;2.666;2023-05-10T06:14:07;16.40;;;10.43;;
36315;SDS011;22343;50.820;2.666;2023-05-10T06:16:53;14.77;;;9.90;;
36315;SDS011;22343;50.820;2.666;2023-05-10T06:19:38;15.82;;;9.82;;
36315;SDS011;22343;50.820;2.666;2023-05-10T06:22:22;13.70;;;9.45;;
36315;SDS011;22343;50.820;2.666;2023-05-10T06:25:07;10.43;;;8.82;;
36315;SDS011;22343;50.820;2.666;2023-05-10T06:27:52;15.45;;;10.00;;
36315;SDS011;22343;50.820;2.666;2023-05-10T06:30:41;12.45;;;9.43;;
36315;SDS011;22343;50.820;2.666;2023-05-10T06:33:27;14.77;;;10.20;;
36315;SDS011;22343;50.820;2.666;2023-05-10T06:36:13;15.15;;;10.77;;
36315;SDS011;22343;50.820;2.666;2023-05-10T06:38:58;14.07;;;10.95;;
36315;SDS011;22343;50.820;2.666;2023-05-10T06:41:43;15.27;;;12.13;;
36315;SDS011;22343;50.820;2.666;2023-05-10T06:44:28;15.55;;;11.90;;
36315;SDS011;22343;50.820;2.666;2023-05-10T06:47:13;15.02;;;10.80;;
36315;SDS011;22343;50.820;2.666;2023-05-10T06:49:58;14.70;;;11.20;;
36315;SDS011;22343;50.820;2.666;2023-05-10T06:52:43;15.20;;;11.65;;
36315;SDS011;22343;50.820;2.666;2023-05-10T06:55:28;14.48;;;11.07;;
36315;SDS011;22343;50.820;2.666;2023-05-10T06:58:14;15.43;;;11.50;;
36315;SDS011;22343;50.820;2.666;2023-05-10T07:01:02;14.82;;;11.70;;
36315;SDS011;22343;50.820;2.666;2023-05-10T07:03:48;14.45;;;11.25;;
36315;SDS011;22343;50.820;2.666;2023-05-10T07:06:34;15.57;;;11.35;;
36315;SDS011;22343;50.820;2.666;2023-05-10T07:09:21;14.10;;;11.50;;
36315;SDS011;22343;50.820;2.666;2023-05-10T07:12:05;14.60;;;11.63;;
36315;SDS011;22343;50.820;2.666;2023-05-10T07:14:50;16.48;;;12.93;;
36315;SDS011;22343;50.820;2.666;2023-05-10T07:17:35;18.35;;;12.55;;
36315;SDS011;22343;50.820;2.666;2023-05-10T07:20:21;15.40;;;12.27;;
36315;SDS011;22343;50.820;2.666;2023-05-10T07:23:07;16.85;;;13.75;;
36315;SDS011;22343;50.820;2.666;2023-05-10T07:25:52;19.48;;;15.18;;
36315;SDS011;22343;50.820;2.666;2023-05-10T07:28:38;21.23;;;15.25;;
36315;SDS011;22343;50.820;2.666;2023-05-10T07:31:23;17.27;;;13.73;;
36315;SDS011;22343;50.820;2.666;2023-05-10T07:34:07;17.38;;;14.18;;
36315;SDS011;22343;50.820;2.666;2023-05-10T07:36:52;19.42;;;15.00;;
36315;SDS011;22343;50.820;2.666;2023-05-10T07:39:37;23.50;;;17.25;;
36315;SDS011;22343;50.820;2.666;2023-05-10T07:42:21;21.17;;;18.13;;
36315;SDS011;22343;50.820;2.666;2023-05-10T07:45:05;20.75;;;17.48;;
36315;SDS011;22343;50.820;2.666;2023-05-10T07:47:50;22.63;;;17.27;;
36315;SDS011;22343;50.820;2.666;2023-05-10T07:50:36;25.37;;;17.93;;
36315;SDS011;22343;50.820;2.666;2023-05-10T07:53:20;25.45;;;18.70;;
36315;SDS011;22343;50.820;2.666;2023-05-10T07:59:16;22.97;;;16.70;;
36315;SDS011;22343;50.820;2.666;2023-05-10T08:02:01;20.57;;;15.00;;
36315;SDS011;22343;50.820;2.666;2023-05-10T08:04:45;19.80;;;15.43;;
36315;SDS011;22343;50.820;2.666;2023-05-10T08:07:29;21.87;;;15.13;;
36315;SDS011;22343;50.820;2.666;2023-05-10T08:10:14;21.10;;;15.53;;
36315;SDS011;22343;50.820;2.666;2023-05-10T08:13:00;20.03;;;15.67;;
36315;SDS011;22343;50.820;2.666;2023-05-10T08:15:45;21.27;;;15.63;;
36315;SDS011;22343;50.820;2.666;2023-05-10T08:18:31;21.10;;;15.17;;
36315;SDS011;22343;50.820;2.666;2023-05-10T08:21:17;20.00;;;14.90;;
36315;SDS011;22343;50.820;2.666;2023-05-10T08:24:03;20.05;;;14.82;;
36315;SDS011;22343;50.820;2.666;2023-05-10T08:26:50;20.17;;;14.63;;
36315;SDS011;22343;50.820;2.666;2023-05-10T08:29:37;18.83;;;14.45;;
36315;SDS011;22343;50.820;2.666;2023-05-10T08:32:22;23.35;;;14.88;;
36315;SDS011;22343;50.820;2.666;2023-05-10T08:35:08;23.02;;;16.10;;
36315;SDS011;22343;50.820;2.666;2023-05-10T08:37:53;21.43;;;18.10;;
36315;SDS011;22343;50.820;2.666;2023-05-10T08:40:41;20.93;;;16.93;;
36315;SDS011;22343;50.820;2.666;2023-05-10T08:43:28;20.43;;;16.13;;
36315;SDS011;22343;50.820;2.666;2023-05-10T08:46:15;20.50;;;16.57;;
36315;SDS011;22343;50.820;2.666;2023-05-10T08:49:03;24.40;;;15.60;;
36315;SDS011;22343;50.820;2.666;2023-05-10T08:51:50;16.60;;;14.02;;
36315;SDS011;22343;50.820;2.666;2023-05-10T08:54:37;17.92;;;14.20;;
36315;SDS011;22343;50.820;2.666;2023-05-10T08:57:23;15.60;;;12.82;;
36315;SDS011;22343;50.820;2.666;2023-05-10T09:00:08;14.55;;;10.60;;
36315;SDS011;22343;50.820;2.666;2023-05-10T09:02:54;13.23;;;10.27;;
36315;SDS011;22343;50.820;2.666;2023-05-10T09:05:39;13.77;;;11.80;;
36315;SDS011;22343;50.820;2.666;2023-05-10T09:08:25;17.30;;;13.07;;
36315;SDS011;22343;50.820;2.666;2023-05-10T09:11:11;16.85;;;14.50;;
36315;SDS011;22343;50.820;2.666;2023-05-10T09:13:58;18.08;;;13.98;;
36315;SDS011;22343;50.820;2.666;2023-05-10T09:16:42;21.80;;;15.48;;
36315;SDS011;22343;50.820;2.666;2023-05-10T09:19:28;20.35;;;16.05;;
36315;SDS011;22343;50.820;2.666;2023-05-10T09:22:13;18.55;;;16.50;;
36315;SDS011;22343;50.820;2.666;2023-05-10T09:25:10;19.42;;;15.18;;
36315;SDS011;22343;50.820;2.666;2023-05-10T09:27:57;17.35;;;14.43;;
36315;SDS011;22343;50.820;2.666;2023-05-10T09:30:43;16.13;;;13.52;;
36315;SDS011;22343;50.820;2.666;2023-05-10T09:33:28;15.02;;;13.23;;
36315;SDS011;22343;50.820;2.666;2023-05-10T09:36:14;16.75;;;13.77;;
36315;SDS011;22343;50.820;2.666;2023-05-10T09:39:00;18.92;;;13.50;;
36315;SDS011;22343;50.820;2.666;2023-05-10T09:41:46;18.27;;;14.13;;
36315;SDS011;22343;50.820;2.666;2023-05-10T09:44:33;17.45;;;14.02;;
36315;SDS011;22343;50.820;2.666;2023-05-10T09:47:18;14.98;;;13.25;;
36315;SDS011;22343;50.820;2.666;2023-05-10T09:50:06;14.50;;;11.18;;
36315;SDS011;22343;50.820;2.666;2023-05-10T09:52:55;17.35;;;10.98;;
36315;SDS011;22343;50.820;2.666;2023-05-10T09:55:46;14.55;;;11.45;;
36315;SDS011;22343;50.820;2.666;2023-05-10T09:58:32;13.35;;;10.30;;
36315;SDS011;22343;50.820;2.666;2023-05-10T10:01:25;14.60;;;9.98;;
36315;SDS011;22343;50.820;2.666;2023-05-10T10:04:10;12.15;;;8.45;;
36315;SDS011;22343;50.820;2.666;2023-05-10T10:06:59;9.18;;;6.40;;
36315;SDS011;22343;50.820;2.666;2023-05-10T10:09:46;7.78;;;6.07;;
36315;SDS011;22343;50.820;2.666;2023-05-10T10:12:30;9.65;;;5.45;;
36315;SDS011;22343;50.820;2.666;2023-05-10T10:15:15;7.88;;;4.35;;
36315;SDS011;22343;50.820;2.666;2023-05-10T10:18:00;10.20;;;5.00;;
36315;SDS011;22343;50.820;2.666;2023-05-10T10:20:47;8.15;;;5.20;;
36315;SDS011;22343;50.820;2.666;2023-05-10T10:23:31;8.27;;;5.03;;
36315;SDS011;22343;50.820;2.666;2023-05-10T10:26:17;8.98;;;4.90;;
36315;SDS011;22343;50.820;2.666;2023-05-10T10:31:57;7.72;;;4.60;;
36315;SDS011;22343;50.820;2.666;2023-05-10T10:34:51;6.45;;;3.85;;
36315;SDS011;22343;50.820;2.666;2023-05-10T10:37:47;5.95;;;3.72;;
36315;SDS011;22343;50.820;2.666;2023-05-10T10:40:33;4.38;;;2.15;;
36315;SDS011;22343;50.820;2.666;2023-05-10T10:43:25;4.82;;;2.55;;
36315;SDS011;22343;50.820;2.666;2023-05-10T10:49:10;5.93;;;2.92;;
36315;SDS011;22343;50.820;2.666;2023-05-10T10:55:18;5.95;;;3.22;;
36315;SDS011;22343;50.820;2.666;2023-05-10T10:58:08;5.85;;;2.97;;
36315;SDS011;22343;50.820;2.666;2023-05-10T11:00:52;5.25;;;2.90;;
36315;SDS011;22343;50.820;2.666;2023-05-10T11:06:47;5.95;;;3.20;;
36315;SDS011;22343;50.820;2.666;2023-05-10T11:09:31;4.13;;;2.70;;
36315;SDS011;22343;50.820;2.666;2023-05-10T11:12:24;7.50;;;3.10;;
36315;SDS011;22343;50.820;2.666;2023-05-10T11:15:10;4.28;;;2.70;;
36315;SDS011;22343;50.820;2.666;2023-05-10T11:17:55;5.15;;;3.00;;
36315;SDS011;22343;50.820;2.666;2023-05-10T11:20:41;5.05;;;2.60;;
36315;SDS011;22343;50.820;2.666;2023-05-10T11:23:47;8.18;;;3.13;;
36315;SDS011;22343;50.820;2.666;2023-05-10T11:26:34;5.45;;;2.50;;
36315;SDS011;22343;50.820;2.666;2023-05-10T11:29:19;5.07;;;2.80;;
36315;SDS011;22343;50.820;2.666;2023-05-10T11:32:04;6.20;;;3.00;;
36315;SDS011;22343;50.820;2.666;2023-05-10T11:34:52;3.55;;;2.47;;
36315;SDS011;22343;50.820;2.666;2023-05-10T11:37:37;4.05;;;2.20;;
36315;SDS011;22343;50.820;2.666;2023-05-10T11:40:27;3.40;;;2.20;;
36315;SDS011;22343;50.820;2.666;2023-05-10T11:43:11;4.35;;;2.03;;
36315;SDS011;22343;50.820;2.666;2023-05-10T11:45:55;3.92;;;2.17;;
36315;SDS011;22343;50.820;2.666;2023-05-10T11:48:40;4.18;;;2.05;;
36315;SDS011;22343;50.820;2.666;2023-05-10T11:51:25;4.15;;;2.08;;
36315;SDS011;22343;50.820;2.666;2023-05-10T11:54:10;4.90;;;1.77;;
36315;SDS011;22343;50.820;2.666;2023-05-10T11:56:55;4.90;;;2.50;;
36315;SDS011;22343;50.820;2.666;2023-05-10T11:59:40;2.95;;;2.00;;
36315;SDS011;22343;50.820;2.666;2023-05-10T12:02:26;4.88;;;2.15;;
36315;SDS011;22343;50.820;2.666;2023-05-10T12:05:11;2.97;;;2.15;;
36315;SDS011;22343;50.820;2.666;2023-05-10T12:08:10;3.42;;;1.92;;
36315;SDS011;22343;50.820;2.666;2023-05-10T12:11:08;3.50;;;2.10;;
36315;SDS011;22343;50.820;2.666;2023-05-10T12:13:55;5.22;;;2.55;;
36315;SDS011;22343;50.820;2.666;2023-05-10T12:16:40;4.75;;;2.40;;
36315;SDS011;22343;50.820;2.666;2023-05-10T12:19:27;4.63;;;2.40;;
36315;SDS011;22343;50.820;2.666;2023-05-10T12:22:13;3.88;;;2.33;;
36315;SDS011;22343;50.820;2.666;2023-05-10T12:24:58;5.82;;;2.67;;
36315;SDS011;22343;50.820;2.666;2023-05-10T12:27:51;7.28;;;2.67;;
36315;SDS011;22343;50.820;2.666;2023-05-10T12:30:38;3.67;;;2.10;;
36315;SDS011;22343;50.820;2.666;2023-05-10T12:33:24;4.88;;;2.33;;
36315;SDS011;22343;50.820;2.666;2023-05-10T12:36:13;5.22;;;1.95;;
36315;SDS011;22343;50.820;2.666;2023-05-10T12:39:02;3.50;;;2.10;;
36315;SDS011;22343;50.820;2.666;2023-05-10T12:41:48;6.20;;;2.20;;
36315;SDS011;22343;50.820;2.666;2023-05-10T12:44:32;3.85;;;1.83;;
36315;SDS011;22343;50.820;2.666;2023-05-10T12:47:16;4.30;;;2.20;;
36315;SDS011;22343;50.820;2.666;2023-05-10T12:50:03;2.78;;;1.98;;
36315;SDS011;22343;50.820;2.666;2023-05-10T12:52:49;3.47;;;1.88;;
36315;SDS011;22343;50.820;2.666;2023-05-10T12:55:35;5.10;;;2.30;;
36315;SDS011;22343;50.820;2.666;2023-05-10T12:58:19;6.20;;;2.22;;
36315;SDS011;22343;50.820;2.666;2023-05-10T13:01:05;6.53;;;2.60;;
36315;SDS011;22343;50.820;2.666;2023-05-10T13:03:51;4.03;;;2.25;;
36315;SDS011;22343;50.820;2.666;2023-05-10T13:06:37;4.85;;;2.70;;
36315;SDS011;22343;50.820;2.666;2023-05-10T13:09:22;7.07;;;2.90;;
36315;SDS011;22343;50.820;2.666;2023-05-10T13:12:07;5.97;;;3.00;;
36315;SDS011;22343;50.820;2.666;2023-05-10T13:14:53;5.85;;;2.90;;
36315;SDS011;22343;50.820;2.666;2023-05-10T13:17:39;4.25;;;2.70;;
36315;SDS011;22343;50.820;2.666;2023-05-10T13:20:26;5.45;;;2.90;;
36315;SDS011;22343;50.820;2.666;2023-05-10T13:23:11;5.93;;;2.90;;
36315;SDS011;22343;50.820;2.666;2023-05-10T13:25:55;8.10;;;3.22;;
36315;SDS011;22343;50.820;2.666;2023-05-10T13:28:41;6.07;;;3.03;;
36315;SDS011;22343;50.820;2.666;2023-05-10T13:31:26;5.07;;;3.22;;
36315;SDS011;22343;50.820;2.666;2023-05-10T13:34:12;5.20;;;3.05;;
36315;SDS011;22343;50.820;2.666;2023-05-10T13:36:57;6.63;;;3.25;;
36315;SDS011;22343;50.820;2.666;2023-05-10T13:39:42;6.60;;;3.55;;
36315;SDS011;22343;50.820;2.666;2023-05-10T13:42:28;6.60;;;3.00;;
36315;SDS011;22343;50.820;2.666;2023-05-10T13:45:13;6.68;;;3.40;;
36315;SDS011;22343;50.820;2.666;2023-05-10T13:47:57;6.53;;;3.55;;
36315;SDS011;22343;50.820;2.666;2023-05-10T13:50:42;6.35;;;3.55;;
36315;SDS011;22343;50.820;2.666;2023-05-10T13:53:28;5.97;;;3.20;;
36315;SDS011;22343;50.820;2.666;2023-05-10T13:56:13;71.97;;;11.85;;
36315;SDS011;22343;50.820;2.666;2023-05-10T13:58:57;8.85;;;4.05;;
36315;SDS011;22343;50.820;2.666;2023-05-10T14:01:43;7.60;;;3.30;;
36315;SDS011;22343;50.820;2.666;2023-05-10T14:04:28;4.15;;;2.60;;
36315;SDS011;22343;50.820;2.666;2023-05-10T14:07:13;9.40;;;3.33;;
36315;SDS011;22343;50.820;2.666;2023-05-10T14:09:58;4.20;;;2.58;;
36315;SDS011;22343;50.820;2.666;2023-05-10T14:12:42;7.88;;;2.95;;
36315;SDS011;22343;50.820;2.666;2023-05-10T14:15:26;5.03;;;3.03;;
36315;SDS011;22343;50.820;2.666;2023-05-10T14:18:10;6.65;;;2.92;;
36315;SDS011;22343;50.820;2.666;2023-05-10T14:20:56;7.22;;;3.72;;
36315;SDS011;22343;50.820;2.666;2023-05-10T14:23:41;9.95;;;3.40;;
36315;SDS011;22343;50.820;2.666;2023-05-10T14:26:26;6.47;;;3.33;;
36315;SDS011;22343;50.820;2.666;2023-05-10T14:29:11;6.55;;;3.15;;
36315;SDS011;22343;50.820;2.666;2023-05-10T14:31:57;7.43;;;3.10;;
36315;SDS011;22343;50.820;2.666;2023-05-10T14:34:41;8.55;;;3.60;;
36315;SDS011;22343;50.820;2.666;2023-05-10T14:37:27;6.57;;;3.42;;
36315;SDS011;22343;50.820;2.666;2023-05-10T14:40:13;7.53;;;3.80;;
36315;SDS011;22343;50.820;2.666;2023-05-10T14:42:59;7.53;;;4.35;;
36315;SDS011;22343;50.820;2.666;2023-05-10T14:45:43;11.00;;;4.28;;
36315;SDS011;22343;50.820;2.666;2023-05-10T14:48:30;8.88;;;4.57;;
36315;SDS011;22343;50.820;2.666;2023-05-10T14:51:14;8.38;;;4.55;;
36315;SDS011;22343;50.820;2.666;2023-05-10T14:54:00;7.80;;;4.35;;
36315;SDS011;22343;50.820;2.666;2023-05-10T14:56:46;11.77;;;4.80;;
36315;SDS011;22343;50.820;2.666;2023-05-10T14:59:30;8.85;;;5.00;;
36315;SDS011;22343;50.820;2.666;2023-05-10T15:02:15;7.32;;;5.28;;
36315;SDS011;22343;50.820;2.666;2023-05-10T15:05:00;10.45;;;5.75;;
36315;SDS011;22343;50.820;2.666;2023-05-10T15:07:44;10.45;;;5.80;;
36315;SDS011;22343;50.820;2.666;2023-05-10T15:10:28;8.63;;;5.63;;
36315;SDS011;22343;50.820;2.666;2023-05-10T15:13:13;6.35;;;3.72;;
36315;SDS011;22343;50.820;2.666;2023-05-10T15:15:59;5.47;;;3.50;;
36315;SDS011;22343;50.820;2.666;2023-05-10T15:18:44;13.05;;;5.15;;
36315;SDS011;22343;50.820;2.666;2023-05-10T15:21:30;13.80;;;5.75;;
36315;SDS011;22343;50.820;2.666;2023-05-10T15:24:20;10.55;;;5.57;;
36315;SDS011;22343;50.820;2.666;2023-05-10T15:27:06;17.38;;;6.47;;
36315;SDS011;22343;50.820;2.666;2023-05-10T15:29:50;15.15;;;5.88;;
36315;SDS011;22343;50.820;2.666;2023-05-10T15:32:35;7.00;;;4.80;;
36315;SDS011;22343;50.820;2.666;2023-05-10T15:35:20;11.82;;;5.22;;
36315;SDS011;22343;50.820;2.666;2023-05-10T15:38:05;8.52;;;5.00;;
36315;SDS011;22343;50.820;2.666;2023-05-10T15:40:49;8.07;;;4.97;;
36315;SDS011;22343;50.820;2.666;2023-05-10T15:43:34;11.15;;;5.30;;
36315;SDS011;22343;50.820;2.666;2023-05-10T15:46:18;11.38;;;5.47;;
36315;SDS011;22343;50.820;2.666;2023-05-10T15:49:03;8.20;;;5.15;;
36315;SDS011;22343;50.820;2.666;2023-05-10T15:51:48;11.25;;;5.97;;
36315;SDS011;22343;50.820;2.666;2023-05-10T15:54:35;7.88;;;5.18;;
36315;SDS011;22343;50.820;2.666;2023-05-10T15:57:20;8.93;;;5.30;;
36315;SDS011;22343;50.820;2.666;2023-05-10T16:00:04;8.68;;;5.00;;
36315;SDS011;22343;50.820;2.666;2023-05-10T16:02:50;11.55;;;5.28;;
36315;SDS011;22343;50.820;2.666;2023-05-10T16:05:36;12.18;;;5.40;;
36315;SDS011;22343;50.820;2.666;2023-05-10T16:08:21;10.43;;;5.03;;
36315;SDS011;22343;50.820;2.666;2023-05-10T16:11:06;9.82;;;4.90;;
36315;SDS011;22343;50.820;2.666;2023-05-10T16:13:52;8.27;;;4.65;;
36315;SDS011;22343;50.820;2.666;2023-05-10T16:16:38;9.88;;;4.70;;
36315;SDS011;22343;50.820;2.666;2023-05-10T16:19:23;8.63;;;4.30;;
36315;SDS011;22343;50.820;2.666;2023-05-10T16:22:08;12.18;;;4.72;;
36315;SDS011;22343;50.820;2.666;2023-05-10T16:24:52;9.30;;;4.38;;
36315;SDS011;22343;50.820;2.666;2023-05-10T16:27:39;8.90;;;4.38;;
36315;SDS011;22343;50.820;2.666;2023-05-10T16:30:26;7.07;;;4.20;;
36315;SDS011;22343;50.820;2.666;2023-05-10T16:33:14;10.45;;;4.57;;
36315;SDS011;22343;50.820;2.666;2023-05-10T16:36:00;9.82;;;4.28;;
36315;SDS011;22343;50.820;2.666;2023-05-10T16:38:44;9.15;;;4.20;;
36315;SDS011;22343;50.820;2.666;2023-05-10T16:41:31;6.90;;;4.13;;
36315;SDS011;22343;50.820;2.666;2023-05-10T16:44:17;7.68;;;4.05;;
36315;SDS011;22343;50.820;2.666;2023-05-10T16:47:03;9.35;;;4.00;;
36315;SDS011;22343;50.820;2.666;2023-05-10T16:49:49;6.72;;;3.95;;
36315;SDS011;22343;50.820;2.666;2023-05-10T16:52:35;9.68;;;3.80;;